Time;durP1;ratioP1;P1;durP2;ratioP2;P2;SDS_P1;SDS_P2;PMS_P1;PMS_P2;Temp;Humidity;BMP_temperature;BMP_pressure;BME280_temperature;BME280_humidity;BME280_pressure;Samples;Min_cycle;Max_cycle;Signal;HPM_P1;HPM_P2
2023/04/07 00:02:02;;;;;;;10.23;8.05;;;;;;;10.67;57.82;99683.91;4970795;28;20429;-83
2023/04/07 00:04:29;;;;;;;9.82;7.97;;;;;;;10.67;57.79;99676.84;4971172;28;20467;-83
2023/04/07 00:06:55;;;;;;;11.35;8.65;;;;;;;10.68;57.84;99682.94;4970231;28;20065;-82
2023/04/07 00:09:22;;;;;;;10.60;8.20;;;;;;;10.67;57.81;99679.50;4953588;28;20062;-83
2023/04/07 00:11:48;;;;;;;11.07;8.57;;;;;;;10.67;57.88;99676.84;4970816;28;20062;-83
2023/04/07 00:14:15;;;;;;;13.25;8.73;;;;;;;10.68;58.06;99685.56;4953938;28;20121;-82
2023/04/07 00:16:41;;;;;;;10.32;8.27;;;;;;;10.66;57.86;99683.03;4953325;28;20141;-82
2023/04/07 00:19:08;;;;;;;11.93;8.82;;;;;;;10.65;57.98;99675.25;4953611;28;20054;-82
2023/04/07 00:21:34;;;;;;;10.60;8.05;;;;;;;10.64;58.00;99674.41;4970820;28;20059;-84
2023/04/07 00:24:00;;;;;;;11.30;8.68;;;;;;;10.63;58.06;99677.97;4953872;28;20062;-83
2023/04/07 00:26:30;;;;;;;11.27;8.30;;;;;;;10.62;58.10;99668.34;4970388;28;20065;-83
2023/04/07 00:28:57;;;;;;;10.38;8.30;;;;;;;10.61;58.07;99679.00;4970748;28;20055;-84
2023/04/07 00:31:24;;;;;;;10.40;8.32;;;;;;;10.60;57.98;99675.50;4970804;28;20141;-84
2023/04/07 00:33:51;;;;;;;10.85;8.30;;;;;;;10.60;58.04;99677.28;4953711;28;20069;-84
2023/04/07 00:36:17;;;;;;;11.30;8.40;;;;;;;10.57;58.03;99678.31;4970335;28;20418;-83
2023/04/07 00:38:44;;;;;;;13.80;8.25;;;;;;;10.55;58.22;99670.50;4953105;28;20138;-83
2023/04/07 00:41:10;;;;;;;9.80;8.23;;;;;;;10.55;58.41;99667.88;4970847;28;20062;-84
2023/04/07 00:43:37;;;;;;;10.93;8.45;;;;;;;10.52;58.58;99661.94;4970941;28;20058;-83
2023/04/07 00:46:03;;;;;;;10.65;7.95;;;;;;;10.53;58.50;99663.63;4970523;28;20051;-83
2023/04/07 00:48:30;;;;;;;9.82;7.53;;;;;;;10.52;58.60;99664.56;4970309;28;20054;-83
2023/04/07 00:50:56;;;;;;;11.55;8.38;;;;;;;10.50;58.49;99659.41;4969870;28;20069;-83
2023/04/07 00:53:23;;;;;;;9.07;7.47;;;;;;;10.50;58.73;99651.50;4974082;28;20065;-82
2023/04/07 00:55:50;;;;;;;10.95;7.80;;;;;;;10.49;58.90;99652.44;4973978;28;20078;-82
2023/04/07 00:58:16;;;;;;;10.02;7.45;;;;;;;10.50;58.87;99653.31;4956733;28;20050;-83
2023/04/07 01:00:49;;;;;;;11.90;7.75;;;;;;;10.47;59.57;99656.13;4974343;28;20050;-83
2023/04/07 01:03:32;;;;;;;9.95;8.10;;;;;;;10.43;59.80;99650.97;4973918;28;20062;-83
2023/04/07 01:06:05;;;;;;;9.75;7.43;;;;;;;10.45;59.63;99653.56;4973647;28;20497;-82
2023/04/07 01:08:46;;;;;;;11.27;7.75;;;;;;;10.43;59.71;99655.38;4956410;28;20097;-82
2023/04/07 01:11:27;;;;;;;9.27;7.45;;;;;;;10.43;59.88;99655.38;4956627;28;20125;-82
2023/04/07 01:13:54;;;;;;;8.57;6.70;;;;;;;10.47;58.79;99648.22;4974002;28;20055;-83
2023/04/07 01:16:29;;;;;;;9.48;7.60;;;;;;;10.42;59.78;99649.28;4973321;28;20062;-83
2023/04/07 01:19:00;;;;;;;12.73;8.20;;;;;;;10.43;59.63;99644.88;4973835;28;20055;-83
2023/04/07 01:21:28;;;;;;;8.75;7.07;;;;;;;10.45;58.91;99653.56;4956459;28;20070;-83
2023/04/07 01:24:02;;;;;;;9.77;7.38;;;;;;;10.43;59.60;99647.50;4956540;28;20062;-82
2023/04/07 01:26:32;;;;;;;10.00;6.93;;;;;;;10.44;58.67;99657.13;4973290;28;20110;-83
2023/04/07 01:29:31;;;;;;;12.07;7.78;;;;;;;10.41;59.88;99644.13;4956213;28;20056;-83
2023/04/07 01:32:01;;;;;;;8.32;6.63;;;;;;;10.43;58.90;99650.97;4956129;28;20066;-83
2023/04/07 01:34:30;;;;;;;10.73;7.40;;;;;;;10.41;59.28;99644.13;4973433;28;20418;-82
2023/04/07 01:36:58;;;;;;;10.63;7.13;;;;;;;10.40;58.90;99645.88;4972622;28;20080;-82
2023/04/07 01:39:26;;;;;;;9.18;7.53;;;;;;;10.39;59.11;99641.56;4973238;28;20066;-82
2023/04/07 01:41:55;;;;;;;9.63;7.40;;;;;;;10.38;59.04;99652.19;4956083;28;20055;-82
2023/04/07 01:44:21;;;;;;;10.38;7.75;;;;;;;10.37;59.21;99654.00;4956012;28;20062;-82
2023/04/07 01:46:51;;;;;;;8.95;7.00;;;;;;;10.37;59.21;99650.50;4972611;28;20066;-82
2023/04/07 01:49:19;;;;;;;13.32;8.15;;;;;;;10.36;59.53;99643.53;4955994;28;20514;-82
2023/04/07 01:51:49;;;;;;;11.60;8.07;;;;;;;10.35;59.33;99645.31;4955651;28;20059;-83
2023/04/07 01:54:17;;;;;;;10.80;8.00;;;;;;;10.36;59.58;99643.53;4973366;28;20070;-83
2023/04/07 01:56:44;;;;;;;9.80;7.88;;;;;;;10.35;59.56;99647.13;4972505;28;20054;-83
2023/04/07 01:59:11;;;;;;;9.23;7.25;;;;;;;10.34;59.57;99646.25;4955825;28;20070;-83
2023/04/07 02:01:37;;;;;;;9.93;7.97;;;;;;;10.36;59.30;99643.53;4972715;28;20110;-83
2023/04/07 02:04:18;;;;;;;11.20;8.38;;;;;;;10.32;60.32;99644.66;4972143;28;20061;-83
2023/04/07 02:06:53;;;;;;;10.43;7.70;;;;;;;10.32;60.37;99642.84;4972350;28;20054;-83
2023/04/07 02:09:23;;;;;;;9.32;7.53;;;;;;;10.33;59.54;99655.09;4972715;28;20493;-83
2023/04/07 02:11:51;;;;;;;10.10;7.88;;;;;;;10.33;59.87;99643.72;4972763;28;20051;-82
2023/04/07 02:14:20;;;;;;;12.05;7.35;;;;;;;10.33;59.65;99654.25;4955458;28;20059;-82
2023/04/07 02:16:47;;;;;;;9.30;7.40;;;;;;;10.33;59.84;99647.22;4972047;28;20500;-82
2023/04/07 02:19:14;;;;;;;8.20;6.93;;;;;;;10.34;59.92;99646.25;4955692;28;20057;-82
2023/04/07 02:21:42;;;;;;;9.07;7.45;;;;;;;10.33;59.78;99641.94;4955458;28;20145;-82
2023/04/07 02:24:10;;;;;;;11.15;7.53;;;;;;;10.34;60.31;99640.13;4955403;28;20062;-82
2023/04/07 02:26:37;;;;;;;9.43;7.20;;;;;;;10.34;59.80;99641.00;4971880;28;20054;-82
2023/04/07 02:29:04;;;;;;;8.82;7.10;;;;;;;10.35;59.85;99645.31;4972408;28;20061;-82
2023/04/07 02:31:31;;;;;;;8.77;6.65;;;;;;;10.34;59.90;99640.13;4955087;28;20054;-82
2023/04/07 02:33:57;;;;;;;9.48;7.28;;;;;;;10.33;59.88;99639.31;4972528;28;20059;-82
2023/04/07 02:36:25;;;;;;;9.32;7.03;;;;;;;10.34;59.73;99645.41;4972257;28;20073;-82
2023/04/07 02:38:51;;;;;;;9.25;6.95;;;;;;;10.34;59.91;99645.41;4954728;28;20065;-82
2023/04/07 02:41:18;;;;;;;9.52;7.70;;;;;;;10.33;60.03;99641.94;4972277;28;20062;-82
2023/04/07 02:43:44;;;;;;;8.65;7.35;;;;;;;10.32;60.16;99649.91;4972051;28;20055;-82
2023/04/07 02:46:11;;;;;;;10.07;7.13;;;;;;;10.33;60.01;99651.59;4971801;28;20564;-83
2023/04/07 02:48:40;;;;;;;9.65;7.55;;;;;;;10.32;60.15;99644.66;4971785;28;20436;-82
2023/04/07 02:51:06;;;;;;;8.60;6.95;;;;;;;10.30;60.19;99653.50;4972056;28;20063;-83
2023/04/07 02:53:33;;;;;;;10.40;7.53;;;;;;;10.31;60.09;99659.59;4971946;28;20084;-82
2023/04/07 02:55:59;;;;;;;9.25;6.97;;;;;;;10.27;60.20;99645.78;4971761;28;20109;-82
2023/04/07 02:58:26;;;;;;;10.52;7.65;;;;;;;10.26;60.36;99651.13;4954258;28;20065;-83
2023/04/07 03:00:52;;;;;;;9.70;7.70;;;;;;;10.23;60.20;99654.78;4972001;28;20093;-82
2023/04/07 03:03:19;;;;;;;11.85;7.78;;;;;;;10.22;60.23;99657.50;4971612;28;20590;-83
2023/04/07 03:05:46;;;;;;;8.82;6.65;;;;;;;10.19;60.50;99653.25;4971572;28;20065;-82
2023/04/07 03:08:12;;;;;;;9.48;7.07;;;;;;;10.18;60.36;99651.56;4971341;28;20065;-82
2023/04/07 03:10:39;;;;;;;10.20;7.60;;;;;;;10.16;60.54;99659.53;4971733;28;20058;-82
2023/04/07 03:13:07;;;;;;;10.13;7.18;;;;;;;10.14;60.51;99650.88;4954350;28;20425;-82
2023/04/07 03:15:33;;;;;;;10.48;7.75;;;;;;;10.13;60.81;99656.25;4971139;28;20498;-82
2023/04/07 03:18:00;;;;;;;11.55;7.95;;;;;;;10.12;60.82;99659.78;4971445;28;20113;-82
2023/04/07 03:20:26;;;;;;;10.65;7.65;;;;;;;10.11;61.02;99656.31;4971380;28;20416;-82
2023/04/07 03:22:53;;;;;;;8.65;7.22;;;;;;;10.11;60.94;99655.47;4954455;28;20062;-82
2023/04/07 03:25:20;;;;;;;8.90;7.07;;;;;;;10.11;60.67;99663.34;4971011;28;20458;-82
2023/04/07 03:27:46;;;;;;;10.57;7.65;;;;;;;10.08;60.89;99651.22;4970834;28;20498;-82
2023/04/07 03:30:13;;;;;;;11.00;7.80;;;;;;;10.05;61.17;99651.41;4971496;28;20082;-82
2023/04/07 03:32:39;;;;;;;9.52;7.40;;;;;;;10.04;60.97;99657.59;4971454;28;20473;-82
2023/04/07 03:35:06;;;;;;;11.02;8.27;;;;;;;10.00;60.93;99654.31;4953761;28;20054;-82
2023/04/07 03:37:33;;;;;;;9.90;7.68;;;;;;;9.98;61.20;99655.31;4970901;28;20424;-82
2023/04/07 03:39:59;;;;;;;10.18;7.72;;;;;;;9.94;61.26;99654.63;4971349;28;20087;-82
2023/04/07 03:42:25;;;;;;;9.65;7.63;;;;;;;9.92;61.39;99656.50;4953892;28;20169;-82
2023/04/07 03:44:52;;;;;;;11.07;7.75;;;;;;;9.90;61.75;99655.75;4971051;28;20058;-82
2023/04/07 03:47:18;;;;;;;10.13;7.70;;;;;;;9.89;61.60;99652.28;4971050;28;20054;-82
2023/04/07 03:49:45;;;;;;;10.45;7.68;;;;;;;9.89;61.86;99649.66;4971016;28;20051;-82
2023/04/07 03:52:11;;;;;;;10.63;7.28;;;;;;;9.89;61.80;99657.53;4971341;28;20063;-82
2023/04/07 03:54:38;;;;;;;10.15;7.38;;;;;;;9.89;61.76;99657.53;4971268;28;20058;-82
2023/04/07 03:57:04;;;;;;;11.00;7.10;;;;;;;9.88;61.78;99655.81;4970408;28;20502;-82
2023/04/07 03:59:31;;;;;;;9.30;7.18;;;;;;;9.88;61.96;99658.44;4954045;28;20113;-82
2023/04/07 04:04:32;;;;;;;8.80;6.70;;;;;;;9.89;61.81;99664.56;4974377;23;20058;-80
2023/04/07 04:06:58;;;;;;;7.55;6.25;;;;;;;9.88;61.94;99660.25;4990605;28;20054;-80
2023/04/07 04:09:25;;;;;;;8.60;6.80;;;;;;;9.89;61.84;99662.78;4990953;28;20061;-79
2023/04/07 04:11:51;;;;;;;9.20;6.55;;;;;;;9.89;61.84;99664.56;4995577;28;20120;-79
2023/04/07 04:14:18;;;;;;;7.97;6.55;;;;;;;9.89;62.00;99664.56;4988610;28;20104;-80
2023/04/07 04:16:45;;;;;;;8.68;5.78;;;;;;;9.88;62.05;99661.06;4992413;28;20495;-79
2023/04/07 04:19:11;;;;;;;9.55;6.55;;;;;;;9.89;62.03;99669.81;5010468;28;20053;-79
2023/04/07 04:21:38;;;;;;;7.97;6.28;;;;;;;9.89;62.04;99672.44;4998292;28;20062;-79
2023/04/07 04:24:04;;;;;;;10.05;6.55;;;;;;;9.88;61.92;99665.50;4991100;28;20062;-80
2023/04/07 04:26:31;;;;;;;9.02;6.70;;;;;;;9.87;62.15;99669.91;4992200;28;20500;-79
2023/04/07 04:28:57;;;;;;;8.57;6.55;;;;;;;9.87;61.84;99671.72;4994741;28;20503;-79
2023/04/07 04:31:27;;;;;;;7.35;5.93;;;;;;;9.85;62.29;99674.41;4994885;28;20062;-79
2023/04/07 04:33:57;;;;;;;8.55;6.20;;;;;;;9.84;61.96;99679.75;4994863;28;20097;-79
2023/04/07 04:36:23;;;;;;;8.68;6.63;;;;;;;9.82;62.25;99678.97;4994333;28;20058;-80
2023/04/07 04:38:50;;;;;;;7.22;6.47;;;;;;;9.79;62.19;99685.25;4994315;28;20058;-80
2023/04/07 04:41:17;;;;;;;7.88;6.55;;;;;;;9.76;62.36;99688.06;4994891;28;20141;-79
2023/04/07 04:43:43;;;;;;;7.78;6.15;;;;;;;9.75;62.17;99686.34;4994680;28;20105;-79
2023/04/07 04:46:10;;;;;;;7.75;6.38;;;;;;;9.72;62.65;99684.75;4994154;28;20060;-79
2023/04/07 04:48:37;;;;;;;9.10;6.60;;;;;;;9.73;62.66;99688.22;4994263;28;20054;-79
2023/04/07 04:51:04;;;;;;;9.75;6.13;;;;;;;9.72;62.84;99695.25;4993256;28;20069;-79
2023/04/07 04:53:31;;;;;;;8.38;6.60;;;;;;;9.72;62.68;99687.38;4994438;28;20407;-80
2023/04/07 04:55:57;;;;;;;8.57;6.35;;;;;;;9.73;62.72;99683.84;4994076;28;20089;-79
2023/04/07 04:58:24;;;;;;;9.30;6.82;;;;;;;9.72;62.73;99689.16;4994107;28;20108;-79
2023/04/07 05:00:56;;;;;;;8.50;6.68;;;;;;;9.70;63.15;99684.00;4994293;28;20132;-79
2023/04/07 05:03:25;;;;;;;7.97;6.18;;;;;;;9.70;62.85;99691.88;4994196;28;20054;-80
2023/04/07 05:05:52;;;;;;;7.75;6.47;;;;;;;9.70;62.78;99693.66;4992447;28;20069;-80
2023/04/07 05:08:18;;;;;;;8.15;6.30;;;;;;;9.69;62.87;99694.59;4993067;28;20138;-79
2023/04/07 05:10:45;;;;;;;8.43;5.90;;;;;;;9.68;63.13;99696.34;4993980;28;20058;-79
2023/04/07 05:13:13;;;;;;;9.40;6.20;;;;;;;9.68;63.11;99691.09;4976901;28;20058;-79
2023/04/07 05:15:40;;;;;;;8.68;6.97;;;;;;;9.67;62.98;99697.28;4992195;28;20058;-79
2023/04/07 05:18:07;;;;;;;9.05;6.03;;;;;;;9.67;63.24;99696.44;4976346;28;20046;-79
2023/04/07 05:20:34;;;;;;;7.28;6.28;;;;;;;9.68;63.17;99698.16;4993930;28;20050;-80
2023/04/07 05:23:01;;;;;;;8.48;6.18;;;;;;;9.67;63.02;99704.31;4994115;28;20113;-80
2023/04/07 05:25:35;;;;;;;8.55;6.20;;;;;;;9.66;63.33;99700.84;4993924;28;20136;-79
2023/04/07 05:28:02;;;;;;;8.30;6.35;;;;;;;9.64;63.32;99711.44;4993495;28;20722;-79
2023/04/07 05:30:29;;;;;;;7.88;6.00;;;;;;;9.65;63.24;99707.06;4993729;28;20097;-79
2023/04/07 05:32:55;;;;;;;8.43;5.93;;;;;;;9.64;63.37;99713.22;4993772;28;20137;-79
2023/04/07 05:35:22;;;;;;;8.25;7.07;;;;;;;9.63;63.35;99708.91;4993404;28;20153;-80
2023/04/07 05:37:52;;;;;;;8.93;6.43;;;;;;;9.63;64.29;99706.28;4992153;28;20058;-80
2023/04/07 05:40:19;;;;;;;8.52;7.15;;;;;;;9.64;63.63;99713.22;4993678;28;20528;-79
2023/04/07 05:42:45;;;;;;;8.90;6.55;;;;;;;9.64;63.51;99711.44;4975902;28;20594;-79
2023/04/07 05:45:12;;;;;;;8.35;6.55;;;;;;;9.66;63.76;99716.63;4993047;28;20058;-78
2023/04/07 05:47:39;;;;;;;9.82;6.35;;;;;;;9.66;63.84;99714.00;4984418;28;20117;-81
2023/04/07 05:50:06;;;;;;;7.72;6.38;;;;;;;9.68;63.67;99721.81;4994350;28;20491;-79
2023/04/07 05:52:32;;;;;;;7.85;6.40;;;;;;;9.70;63.90;99719.94;4993294;28;20111;-79
2023/04/07 05:54:59;;;;;;;9.50;6.72;;;;;;;9.71;63.87;99727.72;4992998;28;20174;-79
2023/04/07 05:57:27;;;;;;;9.25;6.53;;;;;;;9.72;63.98;99718.91;4992933;28;20141;-77
2023/04/07 05:59:53;;;;;;;7.65;6.15;;;;;;;9.74;64.00;99724.94;4993227;28;20389;-78
2023/04/07 06:02:20;;;;;;;8.32;6.40;;;;;;;9.76;63.96;99730.13;4993531;28;20054;-79
2023/04/07 06:04:47;;;;;;;8.18;6.85;;;;;;;9.78;63.87;99730.88;4991648;28;20058;-78
2023/04/07 06:07:13;;;;;;;8.38;6.53;;;;;;;9.80;64.21;99736.06;4992582;28;20538;-78
2023/04/07 06:09:41;;;;;;;7.78;6.50;;;;;;;9.81;64.02;99737.75;4992957;28;20144;-77
2023/04/07 06:12:09;;;;;;;8.57;6.68;;;;;;;9.82;64.12;99740.28;4995007;28;20060;-78
2023/04/07 06:14:36;;;;;;;8.10;6.88;;;;;;;9.84;64.05;99737.59;4994484;28;20053;-78
2023/04/07 06:17:02;;;;;;;8.88;7.28;;;;;;;9.85;64.20;99744.53;5011746;28;20101;-78
2023/04/07 06:19:29;;;;;;;8.65;6.97;;;;;;;9.86;64.43;99743.59;5012289;28;20058;-79
2023/04/07 06:21:55;;;;;;;8.98;7.25;;;;;;;9.88;64.43;99744.38;5012071;28;20061;-79
2023/04/07 06:24:24;;;;;;;8.15;7.32;;;;;;;9.90;64.38;99739.88;5012173;28;20675;-79
2023/04/07 06:26:53;;;;;;;13.50;6.88;;;;;;;9.91;64.77;99750.31;5011520;28;20053;-79
2023/04/07 06:29:20;;;;;;;8.00;6.40;;;;;;;9.96;64.27;99746.59;5011954;28;20100;-78
2023/04/07 06:31:47;;;;;;;8.68;7.00;;;;;;;9.97;64.12;99746.50;5012628;28;20121;-79
2023/04/07 06:34:13;;;;;;;7.88;6.38;;;;;;;10.00;64.25;99754.22;4994730;28;20108;-79
2023/04/07 06:36:40;;;;;;;7.82;6.15;;;;;;;10.01;64.18;99749.81;5011338;28;20092;-79
2023/04/07 06:39:06;;;;;;;9.45;6.78;;;;;;;10.02;64.52;99757.63;5012061;28;20061;-79
2023/04/07 06:41:33;;;;;;;8.38;6.55;;;;;;;10.04;64.51;99755.75;5012070;28;20507;-79
2023/04/07 06:44:11;;;;;;;8.25;6.35;;;;;;;10.04;65.36;99753.13;5011681;28;20081;-81
2023/04/07 06:46:38;;;;;;;7.78;6.57;;;;;;;10.11;64.60;99758.91;5011819;28;20166;-79
2023/04/07 06:49:05;;;;;;;8.70;5.85;;;;;;;10.15;64.53;99763.06;5011450;28;20054;-81
2023/04/07 06:51:31;;;;;;;7.07;5.70;;;;;;;10.19;64.68;99762.88;5011865;28;20061;-81
2023/04/07 06:53:58;;;;;;;7.38;5.85;;;;;;;10.22;64.46;99773.22;5011622;28;20078;-79
2023/04/07 06:56:25;;;;;;;7.53;5.95;;;;;;;10.23;64.37;99770.53;5011261;28;20104;-79
2023/04/07 06:58:52;;;;;;;7.45;6.13;;;;;;;10.24;64.43;99774.84;5011310;28;20100;-81
2023/04/07 07:01:19;;;;;;;8.30;6.80;;;;;;;10.25;64.45;99779.16;5011554;28;20494;-80
2023/04/07 07:03:46;;;;;;;8.00;6.75;;;;;;;10.25;64.31;99779.16;5011236;28;20104;-78
2023/04/07 07:06:13;;;;;;;7.05;6.13;;;;;;;10.26;64.61;99780.88;5010274;28;20062;-78
2023/04/07 07:08:40;;;;;;;7.47;6.25;;;;;;;10.29;64.69;99787.75;5011134;28;20145;-80
2023/04/07 07:11:06;;;;;;;7.95;6.38;;;;;;;10.29;64.75;99785.94;5011194;28;20058;-80
2023/04/07 07:13:33;;;;;;;7.78;6.60;;;;;;;10.31;64.69;99783.25;5011107;28;20064;-80
2023/04/07 07:15:59;;;;;;;7.00;6.30;;;;;;;10.33;64.82;99786.66;5010777;28;20570;-78
2023/04/07 07:18:26;;;;;;;9.25;6.82;;;;;;;10.36;64.82;99790.88;5010827;28;20490;-78
2023/04/07 07:20:54;;;;;;;6.78;5.75;;;;;;;10.36;64.45;99785.63;5010882;28;20157;-80
2023/04/07 07:23:21;;;;;;;6.82;6.13;;;;;;;10.37;64.56;99798.69;4995597;28;20525;-80
2023/04/07 07:25:47;;;;;;;9.35;6.22;;;;;;;10.38;64.70;99800.41;4990272;28;20063;-78
2023/04/07 07:28:15;;;;;;;9.07;7.07;;;;;;;10.39;64.81;99802.09;4990323;28;20506;-78
2023/04/07 07:30:41;;;;;;;9.57;7.40;;;;;;;10.41;64.95;99805.50;4991176;28;20060;-80
2023/04/07 07:33:08;;;;;;;8.60;7.10;;;;;;;10.43;64.86;99813.28;4974377;28;20109;-78
2023/04/07 07:35:36;;;;;;;8.15;7.03;;;;;;;10.42;65.13;99806.31;4991087;28;20129;-78
2023/04/07 07:38:03;;;;;;;8.88;7.65;;;;;;;10.42;65.02;99812.44;4982196;28;20058;-81
2023/04/07 07:40:30;;;;;;;9.05;8.00;;;;;;;10.44;65.05;99815.03;4990836;28;20046;-78
2023/04/07 07:42:56;;;;;;;10.90;8.43;;;;;;;10.46;64.87;99817.59;4991141;28;20054;-80
2023/04/07 07:45:23;;;;;;;9.45;8.20;;;;;;;10.48;65.35;99813.94;4975301;28;20061;-78
2023/04/07 07:47:50;;;;;;;11.52;8.10;;;;;;;10.52;65.20;99823.34;4990470;28;20054;-79
2023/04/07 07:50:16;;;;;;;9.25;8.18;;;;;;;10.57;65.49;99827.50;4990968;28;20149;-80
2023/04/07 07:52:43;;;;;;;8.63;7.72;;;;;;;10.61;65.38;99821.16;4991102;28;20142;-80
2023/04/07 07:55:10;;;;;;;9.18;6.95;;;;;;;10.65;65.45;99825.31;4990784;28;20150;-80
2023/04/07 07:57:36;;;;;;;7.85;7.05;;;;;;;10.69;65.64;99830.28;4990881;28;20511;-79
2023/04/07 08:00:03;;;;;;;8.45;7.00;;;;;;;10.73;65.39;99830.13;4990001;28;20058;-80
2023/04/07 08:02:31;;;;;;;8.95;7.38;;;;;;;10.77;65.40;99834.28;4994597;28;20062;-80
2023/04/07 08:04:59;;;;;;;9.88;7.32;;;;;;;10.79;65.26;99833.25;4994845;28;20055;-80
2023/04/07 08:07:26;;;;;;;9.15;7.57;;;;;;;10.83;65.41;99836.56;4977335;28;20062;-80
2023/04/07 08:09:52;;;;;;;9.38;7.68;;;;;;;10.85;65.49;99847.88;4994148;28;20054;-80
2023/04/07 08:12:19;;;;;;;8.40;7.53;;;;;;;10.87;65.17;99845.16;4995240;28;20057;-80
2023/04/07 08:14:45;;;;;;;9.27;8.32;;;;;;;10.88;65.11;99847.66;4994746;28;20089;-80
2023/04/07 08:17:12;;;;;;;9.82;8.05;;;;;;;10.90;65.08;99852.84;4993305;28;20058;-80
2023/04/07 08:19:39;;;;;;;8.93;7.93;;;;;;;10.92;65.25;99853.63;4994970;28;20514;-80
2023/04/07 08:22:05;;;;;;;8.50;7.60;;;;;;;10.94;65.50;99854.38;4994584;28;20056;-80
2023/04/07 08:24:32;;;;;;;9.65;7.38;;;;;;;10.97;65.34;99856.84;4992933;28;20052;-80
2023/04/07 08:26:58;;;;;;;8.32;7.20;;;;;;;11.01;65.59;99860.13;4993955;28;20393;-80
2023/04/07 08:29:25;;;;;;;9.00;8.10;;;;;;;11.04;65.38;99855.56;4994647;28;20495;-80
2023/04/07 08:31:51;;;;;;;10.93;9.07;;;;;;;11.08;65.20;99858.88;4994152;28;20089;-80
2023/04/07 08:34:20;;;;;;;10.93;8.50;;;;;;;11.11;65.16;99858.69;4992371;28;20080;-80
2023/04/07 08:36:46;;;;;;;11.30;8.95;;;;;;;11.13;65.21;99869.97;4991663;28;20129;-80
2023/04/07 08:39:13;;;;;;;9.20;8.23;;;;;;;11.16;65.42;99867.19;4992042;28;20065;-80
2023/04/07 08:41:41;;;;;;;9.13;8.18;;;;;;;11.19;65.68;99868.78;4991133;28;20104;-80
2023/04/07 08:44:09;;;;;;;10.75;9.38;;;;;;;11.23;65.55;99870.31;4991183;28;20069;-80
2023/04/07 08:46:39;;;;;;;10.57;8.77;;;;;;;11.27;65.77;99868.31;5001635;28;20054;-80
2023/04/07 08:49:12;;;;;;;9.38;8.10;;;;;;;11.30;65.61;99874.28;4991096;28;20050;-80
2023/04/07 08:51:47;;;;;;;9.57;8.52;;;;;;;11.34;66.20;99878.41;5001882;28;20046;-80
2023/04/07 08:54:17;;;;;;;9.95;8.50;;;;;;;11.41;65.61;99878.06;5007991;28;20058;-80
2023/04/07 08:56:44;;;;;;;9.48;7.57;;;;;;;11.47;65.48;99878.56;5012278;28;20049;-80
2023/04/07 08:59:13;;;;;;;7.60;6.82;;;;;;;11.50;65.32;99885.44;4995799;28;20477;-80
2023/04/07 09:01:40;;;;;;;8.73;6.85;;;;;;;11.54;65.00;99881.69;4992387;28;20054;-80
2023/04/07 09:04:09;;;;;;;8.07;6.57;;;;;;;11.55;65.02;99886.00;4997612;28;20482;-80
2023/04/07 09:06:36;;;;;;;8.80;6.95;;;;;;;11.57;64.77;99894.69;4997103;28;20050;-80
2023/04/07 09:09:06;;;;;;;9.02;7.18;;;;;;;11.57;64.68;99889.41;4994019;28;20519;-80
2023/04/07 09:11:36;;;;;;;7.35;6.65;;;;;;;11.59;65.06;99894.59;4993757;28;20054;-80
2023/04/07 09:14:02;;;;;;;9.30;7.10;;;;;;;11.60;65.17;99897.13;4976547;28;20054;-80
2023/04/07 09:16:32;;;;;;;7.93;6.97;;;;;;;11.63;65.13;99900.53;4993770;28;20050;-79
2023/04/07 09:18:59;;;;;;;7.97;7.18;;;;;;;11.65;65.04;99888.09;4993711;28;20054;-80
2023/04/07 09:21:28;;;;;;;8.45;6.88;;;;;;;11.69;65.18;99895.75;4993658;28;20062;-80
2023/04/07 09:23:55;;;;;;;7.68;6.85;;;;;;;11.73;65.09;99897.25;4993823;28;20050;-80
2023/04/07 09:26:24;;;;;;;7.95;6.78;;;;;;;11.77;64.89;99894.44;4992075;28;20495;-80
2023/04/07 09:28:54;;;;;;;7.65;6.63;;;;;;;11.81;64.93;99895.97;4993571;28;20165;-80
2023/04/07 09:31:25;;;;;;;8.07;6.65;;;;;;;11.85;65.07;99893.03;4993760;28;20605;-80
2023/04/07 09:33:52;;;;;;;7.25;6.43;;;;;;;11.92;65.13;99896.13;4992267;28;20053;-80
2023/04/07 09:36:19;;;;;;;7.15;6.45;;;;;;;12.00;65.06;99890.38;4993304;28;20058;-80
2023/04/07 09:38:45;;;;;;;6.97;5.82;;;;;;;12.05;64.83;99898.94;4993096;28;20050;-80
2023/04/07 09:41:15;;;;;;;6.55;5.20;;;;;;;12.12;64.69;99896.75;4993466;28;20570;-80
2023/04/07 09:43:44;;;;;;;6.25;5.45;;;;;;;12.17;64.49;99897.31;4993320;28;20062;-80
2023/04/07 09:46:15;;;;;;;6.20;5.50;;;;;;;12.23;64.34;99901.38;4991732;28;20081;-80
2023/04/07 09:48:44;;;;;;;6.85;5.65;;;;;;;12.28;64.20;99896.66;4992655;28;20050;-80
2023/04/07 09:51:12;;;;;;;6.00;5.18;;;;;;;12.33;64.38;99902.50;4993140;28;20058;-78
2023/04/07 09:53:50;;;;;;;7.47;6.03;;;;;;;12.34;64.47;99898.91;4993050;28;20498;-80
2023/04/07 09:56:21;;;;;;;5.90;5.30;;;;;;;12.43;64.00;99897.50;4992952;28;20051;-80
2023/04/07 09:58:52;;;;;;;6.68;5.65;;;;;;;12.49;63.92;99896.28;4992905;28;20061;-80
2023/04/07 10:01:20;;;;;;;6.30;5.03;;;;;;;12.54;63.60;99904.75;4993206;28;20104;-80
2023/04/07 10:03:47;;;;;;;5.90;5.22;;;;;;;12.59;63.75;99913.22;5074277;23;20459;-84
2023/04/07 10:06:15;;;;;;;5.22;4.68;;;;;;;12.66;63.53;99902.25;4990131;28;20050;-83
2023/04/07 10:08:42;;;;;;;5.80;4.85;;;;;;;12.71;63.47;99905.47;4990384;28;20105;-83
2023/04/07 10:11:09;;;;;;;5.40;4.80;;;;;;;12.78;63.54;99901.47;4990322;28;20587;-84
2023/04/07 10:13:39;;;;;;;5.80;4.53;;;;;;;12.82;62.76;99905.63;4992284;28;20066;-84
2023/04/07 10:16:06;;;;;;;5.00;4.35;;;;;;;12.87;62.17;99905.34;4974679;28;20421;-83
2023/04/07 10:18:35;;;;;;;5.53;4.50;;;;;;;12.86;61.72;99916.84;4991758;28;20054;-84
2023/04/07 10:21:05;;;;;;;4.47;4.07;;;;;;;12.85;61.78;99912.50;4974711;28;20046;-84
2023/04/07 10:23:55;;;;;;;4.80;4.30;;;;;;;12.80;61.53;99914.59;4991990;28;20073;-83
2023/04/07 10:26:25;;;;;;;4.05;3.55;;;;;;;12.82;61.48;99916.19;4991879;28;20058;-84
2023/04/07 10:28:59;;;;;;;3.58;3.28;;;;;;;12.81;60.63;99918.91;4974515;28;20081;-84
2023/04/07 10:31:26;;;;;;;4.40;3.70;;;;;;;12.79;60.71;99932.25;4992019;28;20051;-84
2023/04/07 10:33:53;;;;;;;3.75;3.42;;;;;;;12.74;60.62;99921.97;4991645;28;20495;-83
2023/04/07 10:36:21;;;;;;;4.53;3.72;;;;;;;12.69;60.91;99929.34;4974226;28;20059;-83
2023/04/07 10:39:06;;;;;;;4.65;3.90;;;;;;;12.62;60.59;99934.16;4974409;28;20093;-83
2023/04/07 10:41:40;;;;;;;5.03;3.60;;;;;;;12.66;61.02;99931.31;5002420;28;20470;-83
2023/04/07 10:44:08;;;;;;;4.28;3.65;;;;;;;12.63;60.99;99930.56;4987421;28;20152;-83
2023/04/07 10:46:55;;;;;;;4.35;3.88;;;;;;;12.57;60.47;99938.88;5004196;28;20081;-83
2023/04/07 10:49:22;;;;;;;4.05;3.65;;;;;;;12.59;60.85;99947.53;4981680;28;20088;-83
2023/04/07 10:52:11;;;;;;;4.35;3.50;;;;;;;12.55;60.46;99943.41;4997749;28;20081;-83
2023/04/07 10:54:38;;;;;;;4.15;3.38;;;;;;;12.61;60.77;99947.44;4983735;28;20086;-83
2023/04/07 10:57:17;;;;;;;4.10;3.42;;;;;;;12.57;60.38;99941.53;4991555;28;20497;-87
2023/04/07 11:00:28;;;;;;;3.80;3.35;;;;;;;12.59;60.52;99944.03;4992064;28;20460;-82
2023/04/07 11:05:27;;;;;;;4.93;3.42;;;;;;;12.68;61.14;99955.84;5029868;28;20072;-90
2023/04/07 11:07:54;;;;;;;4.38;3.97;;;;;;;12.69;61.08;99954.88;5031937;28;20516;-87
2023/04/07 11:10:21;;;;;;;4.80;3.88;;;;;;;12.71;60.94;99956.47;5032551;28;20449;-87
2023/04/07 11:13:04;;;;;;;4.85;3.75;;;;;;;12.70;60.99;99951.28;5015180;28;20125;-86
2023/04/07 11:15:30;;;;;;;5.43;3.47;;;;;;;12.77;60.81;99957.91;5014585;28;20057;-87
2023/04/07 11:18:12;;;;;;;3.90;3.50;;;;;;;12.77;60.54;99955.25;5031287;28;20417;-87
2023/04/07 11:20:54;;;;;;;4.30;3.88;;;;;;;12.83;60.50;99954.03;5014595;28;20053;-87
2023/04/07 11:23:22;;;;;;;4.35;3.85;;;;;;;12.96;61.30;99956.72;5014672;28;20065;-87
2023/04/07 11:25:51;;;;;;;5.03;4.10;;;;;;;13.11;62.31;99966.31;5014344;28;20056;-87
2023/04/07 11:28:17;;;;;;;5.30;4.07;;;;;;;13.32;62.43;99959.72;5014548;28;20057;-87
2023/04/07 11:30:47;;;;;;;4.70;3.83;;;;;;;13.55;61.63;99961.75;5030569;28;20049;-89
2023/04/07 11:33:20;;;;;;;4.70;4.20;;;;;;;13.76;59.82;99957.78;5014727;28;20049;-86
2023/04/07 11:35:50;;;;;;;4.72;4.05;;;;;;;13.92;59.83;99955.78;5031525;28;20064;-86
2023/04/07 11:38:18;;;;;;;3.95;3.33;;;;;;;14.03;59.68;99962.16;5031730;28;20065;-87
2023/04/07 11:40:45;;;;;;;4.30;3.90;;;;;;;14.11;59.23;99965.13;5031767;28;20065;-88
2023/04/07 11:43:23;;;;;;;5.20;4.15;;;;;;;14.16;58.85;99957.69;5014810;28;20057;-87
2023/04/07 11:46:08;;;;;;;5.00;4.22;;;;;;;14.25;58.66;99968.59;5031394;28;20502;-86